sensor_id;sensor_type;location;lat;lon;timestamp;temperature;humidity
10644;DHT22;5370;50.132;8.626;2023-05-16T00:00:33;12.60;93.00
10644;DHT22;5370;50.132;8.626;2023-05-16T00:03:00;12.60;93.10
10644;DHT22;5370;50.132;8.626;2023-05-16T00:05:27;12.60;93.10
10644;DHT22;5370;50.132;8.626;2023-05-16T00:07:53;12.60;93.20
10644;DHT22;5370;50.132;8.626;2023-05-16T00:10:18;12.50;93.20
10644;DHT22;5370;50.132;8.626;2023-05-16T00:12:44;12.50;93.30
10644;DHT22;5370;50.132;8.626;2023-05-16T00:15:10;12.50;93.40
10644;DHT22;5370;50.132;8.626;2023-05-16T00:17:39;12.50;93.50
10644;DHT22;5370;50.132;8.626;2023-05-16T00:20:05;12.40;93.70
10644;DHT22;5370;50.132;8.626;2023-05-16T00:22:32;12.50;93.80
10644;DHT22;5370;50.132;8.626;2023-05-16T00:24:58;12.50;94.00
10644;DHT22;5370;50.132;8.626;2023-05-16T00:27:24;12.40;94.00
10644;DHT22;5370;50.132;8.626;2023-05-16T00:29:49;12.50;94.10
10644;DHT22;5370;50.132;8.626;2023-05-16T00:32:15;12.40;94.10
10644;DHT22;5370;50.132;8.626;2023-05-16T00:34:41;12.40;94.20
10644;DHT22;5370;50.132;8.626;2023-05-16T00:37:06;12.40;94.20
10644;DHT22;5370;50.132;8.626;2023-05-16T00:39:32;12.40;94.20
10644;DHT22;5370;50.132;8.626;2023-05-16T00:41:57;12.30;94.30
10644;DHT22;5370;50.132;8.626;2023-05-16T00:44:23;12.30;94.30
10644;DHT22;5370;50.132;8.626;2023-05-16T00:46:48;12.30;94.30
10644;DHT22;5370;50.132;8.626;2023-05-16T00:49:14;12.30;94.40
10644;DHT22;5370;50.132;8.626;2023-05-16T00:51:40;12.30;94.40
10644;DHT22;5370;50.132;8.626;2023-05-16T00:54:06;12.30;94.50
10644;DHT22;5370;50.132;8.626;2023-05-16T00:56:32;12.20;94.60
10644;DHT22;5370;50.132;8.626;2023-05-16T00:58:58;12.20;94.70
10644;DHT22;5370;50.132;8.626;2023-05-16T01:01:25;12.20;94.80
10644;DHT22;5370;50.132;8.626;2023-05-16T01:03:52;12.20;94.90
10644;DHT22;5370;50.132;8.626;2023-05-16T01:06:18;12.10;94.90
10644;DHT22;5370;50.132;8.626;2023-05-16T01:08:43;12.10;95.00
10644;DHT22;5370;50.132;8.626;2023-05-16T01:11:33;12.10;95.00
10644;DHT22;5370;50.132;8.626;2023-05-16T01:22:31;12.10;95.40
10644;DHT22;5370;50.132;8.626;2023-05-16T01:27:56;12.10;95.50
10644;DHT22;5370;50.132;8.626;2023-05-16T01:30:21;12.10;95.40
10644;DHT22;5370;50.132;8.626;2023-05-16T01:32:47;12.20;95.50
10644;DHT22;5370;50.132;8.626;2023-05-16T01:35:14;12.20;95.50
10644;DHT22;5370;50.132;8.626;2023-05-16T01:37:47;12.20;95.60
10644;DHT22;5370;50.132;8.626;2023-05-16T01:40:36;12.20;95.60
10644;DHT22;5370;50.132;8.626;2023-05-16T01:43:10;12.20;95.70
10644;DHT22;5370;50.132;8.626;2023-05-16T01:45:40;12.20;95.50
10644;DHT22;5370;50.132;8.626;2023-05-16T01:48:12;12.20;95.50
10644;DHT22;5370;50.132;8.626;2023-05-16T01:50:44;12.30;95.50
10644;DHT22;5370;50.132;8.626;2023-05-16T01:53:21;12.30;95.50
10644;DHT22;5370;50.132;8.626;2023-05-16T01:55:50;12.30;95.40
10644;DHT22;5370;50.132;8.626;2023-05-16T01:58:19;12.30;95.30
10644;DHT22;5370;50.132;8.626;2023-05-16T02:00:45;12.30;95.30
10644;DHT22;5370;50.132;8.626;2023-05-16T02:03:11;12.30;95.20
10644;DHT22;5370;50.132;8.626;2023-05-16T02:05:37;12.30;95.20
10644;DHT22;5370;50.132;8.626;2023-05-16T02:08:03;12.30;95.10
10644;DHT22;5370;50.132;8.626;2023-05-16T02:10:29;12.30;95.10
10644;DHT22;5370;50.132;8.626;2023-05-16T02:12:54;12.20;95.10
10644;DHT22;5370;50.132;8.626;2023-05-16T02:15:20;12.20;95.00
10644;DHT22;5370;50.132;8.626;2023-05-16T02:17:46;12.20;95.00
10644;DHT22;5370;50.132;8.626;2023-05-16T02:20:12;12.20;95.10
10644;DHT22;5370;50.132;8.626;2023-05-16T02:22:38;12.20;95.20
10644;DHT22;5370;50.132;8.626;2023-05-16T02:25:05;12.20;95.30
10644;DHT22;5370;50.132;8.626;2023-05-16T02:27:31;12.20;95.50
10644;DHT22;5370;50.132;8.626;2023-05-16T02:29:57;12.30;95.60
10644;DHT22;5370;50.132;8.626;2023-05-16T02:32:23;12.30;95.70
10644;DHT22;5370;50.132;8.626;2023-05-16T02:34:48;12.40;95.70
10644;DHT22;5370;50.132;8.626;2023-05-16T02:37:14;12.40;95.70
10644;DHT22;5370;50.132;8.626;2023-05-16T02:39:39;12.50;95.60
10644;DHT22;5370;50.132;8.626;2023-05-16T02:42:06;12.50;95.50
10644;DHT22;5370;50.132;8.626;2023-05-16T02:44:32;12.50;95.40
10644;DHT22;5370;50.132;8.626;2023-05-16T02:46:58;12.50;95.30
10644;DHT22;5370;50.132;8.626;2023-05-16T02:49:23;12.50;95.20
10644;DHT22;5370;50.132;8.626;2023-05-16T02:51:49;12.50;95.40
10644;DHT22;5370;50.132;8.626;2023-05-16T02:54:15;12.50;95.10
10644;DHT22;5370;50.132;8.626;2023-05-16T02:56:40;12.50;95.00
10644;DHT22;5370;50.132;8.626;2023-05-16T02:59:06;12.50;95.00
10644;DHT22;5370;50.132;8.626;2023-05-16T03:01:31;12.50;95.00
10644;DHT22;5370;50.132;8.626;2023-05-16T03:03:57;12.40;95.00
10644;DHT22;5370;50.132;8.626;2023-05-16T03:06:23;12.40;95.00
10644;DHT22;5370;50.132;8.626;2023-05-16T03:08:48;12.40;95.10
10644;DHT22;5370;50.132;8.626;2023-05-16T03:11:14;12.40;95.10
10644;DHT22;5370;50.132;8.626;2023-05-16T03:13:40;12.40;95.30
10644;DHT22;5370;50.132;8.626;2023-05-16T03:16:06;12.40;95.80
10644;DHT22;5370;50.132;8.626;2023-05-16T03:18:32;12.50;96.10
10644;DHT22;5370;50.132;8.626;2023-05-16T03:20:57;12.50;96.00
10644;DHT22;5370;50.132;8.626;2023-05-16T03:23:24;12.50;96.00
10644;DHT22;5370;50.132;8.626;2023-05-16T03:25:50;12.50;95.90
10644;DHT22;5370;50.132;8.626;2023-05-16T03:28:16;12.60;95.80
10644;DHT22;5370;50.132;8.626;2023-05-16T03:30:42;12.60;95.90
10644;DHT22;5370;50.132;8.626;2023-05-16T03:33:08;12.60;96.00
10644;DHT22;5370;50.132;8.626;2023-05-16T03:35:34;12.50;95.80
10644;DHT22;5370;50.132;8.626;2023-05-16T03:38:01;12.60;95.90
10644;DHT22;5370;50.132;8.626;2023-05-16T03:40:26;12.60;96.10
10644;DHT22;5370;50.132;8.626;2023-05-16T03:42:52;12.60;96.20
10644;DHT22;5370;50.132;8.626;2023-05-16T03:45:18;12.60;96.20
10644;DHT22;5370;50.132;8.626;2023-05-16T03:47:43;12.70;96.20
10644;DHT22;5370;50.132;8.626;2023-05-16T03:50:09;12.70;96.20
10644;DHT22;5370;50.132;8.626;2023-05-16T03:52:35;12.80;96.30
10644;DHT22;5370;50.132;8.626;2023-05-16T03:55:01;12.90;96.20
10644;DHT22;5370;50.132;8.626;2023-05-16T03:57:30;13.00;96.10
10644;DHT22;5370;50.132;8.626;2023-05-16T03:59:56;13.00;95.80
10644;DHT22;5370;50.132;8.626;2023-05-16T04:02:22;13.10;95.70
10644;DHT22;5370;50.132;8.626;2023-05-16T04:04:47;13.10;95.60
10644;DHT22;5370;50.132;8.626;2023-05-16T04:07:13;13.20;95.60
10644;DHT22;5370;50.132;8.626;2023-05-16T04:09:38;13.30;95.50
10644;DHT22;5370;50.132;8.626;2023-05-16T04:12:04;13.30;95.30
10644;DHT22;5370;50.132;8.626;2023-05-16T04:14:30;13.40;95.30
10644;DHT22;5370;50.132;8.626;2023-05-16T04:16:56;13.50;95.20
10644;DHT22;5370;50.132;8.626;2023-05-16T04:19:22;13.50;95.00
10644;DHT22;5370;50.132;8.626;2023-05-16T04:21:47;13.60;94.90
10644;DHT22;5370;50.132;8.626;2023-05-16T04:24:13;13.70;94.80
10644;DHT22;5370;50.132;8.626;2023-05-16T04:26:38;13.80;94.50
10644;DHT22;5370;50.132;8.626;2023-05-16T04:29:04;13.90;94.40
10644;DHT22;5370;50.132;8.626;2023-05-16T04:31:30;13.90;94.20
10644;DHT22;5370;50.132;8.626;2023-05-16T04:33:55;14.00;94.10
10644;DHT22;5370;50.132;8.626;2023-05-16T04:36:22;14.10;94.30
10644;DHT22;5370;50.132;8.626;2023-05-16T04:38:48;14.20;93.80
10644;DHT22;5370;50.132;8.626;2023-05-16T04:41:13;14.30;93.60
10644;DHT22;5370;50.132;8.626;2023-05-16T04:43:39;14.30;93.30
10644;DHT22;5370;50.132;8.626;2023-05-16T04:46:05;14.40;93.00
10644;DHT22;5370;50.132;8.626;2023-05-16T04:48:32;14.40;92.60
10644;DHT22;5370;50.132;8.626;2023-05-16T04:50:58;14.40;92.50
10644;DHT22;5370;50.132;8.626;2023-05-16T04:53:23;14.40;92.30
10644;DHT22;5370;50.132;8.626;2023-05-16T04:55:49;14.40;92.20
10644;DHT22;5370;50.132;8.626;2023-05-16T04:58:15;14.60;92.20
10644;DHT22;5370;50.132;8.626;2023-05-16T05:00:40;14.70;91.90
10644;DHT22;5370;50.132;8.626;2023-05-16T05:03:06;14.70;91.60
10644;DHT22;5370;50.132;8.626;2023-05-16T05:05:32;14.70;91.20
10644;DHT22;5370;50.132;8.626;2023-05-16T05:07:58;14.70;90.70
10644;DHT22;5370;50.132;8.626;2023-05-16T05:10:24;14.60;90.40
10644;DHT22;5370;50.132;8.626;2023-05-16T05:12:52;14.50;90.00
10644;DHT22;5370;50.132;8.626;2023-05-16T05:15:17;14.40;89.20
10644;DHT22;5370;50.132;8.626;2023-05-16T05:17:43;14.40;89.30
10644;DHT22;5370;50.132;8.626;2023-05-16T05:20:09;14.40;89.40
10644;DHT22;5370;50.132;8.626;2023-05-16T05:22:35;14.40;89.30
10644;DHT22;5370;50.132;8.626;2023-05-16T05:25:01;14.40;88.90
10644;DHT22;5370;50.132;8.626;2023-05-16T05:27:26;14.40;88.60
10644;DHT22;5370;50.132;8.626;2023-05-16T05:29:52;14.40;88.40
10644;DHT22;5370;50.132;8.626;2023-05-16T05:32:17;14.50;88.20
10644;DHT22;5370;50.132;8.626;2023-05-16T05:34:43;14.40;87.90
10644;DHT22;5370;50.132;8.626;2023-05-16T05:37:08;14.40;87.90
10644;DHT22;5370;50.132;8.626;2023-05-16T05:39:34;14.40;87.30
10644;DHT22;5370;50.132;8.626;2023-05-16T05:42:00;14.30;87.00
10644;DHT22;5370;50.132;8.626;2023-05-16T05:44:28;14.30;86.80
10644;DHT22;5370;50.132;8.626;2023-05-16T05:46:54;14.20;86.60
10644;DHT22;5370;50.132;8.626;2023-05-16T05:49:22;14.20;86.60
10644;DHT22;5370;50.132;8.626;2023-05-16T05:51:48;14.20;85.90
10644;DHT22;5370;50.132;8.626;2023-05-16T05:54:17;14.10;85.60
10644;DHT22;5370;50.132;8.626;2023-05-16T05:56:43;14.10;85.50
10644;DHT22;5370;50.132;8.626;2023-05-16T05:59:08;14.10;85.50
10644;DHT22;5370;50.132;8.626;2023-05-16T06:01:34;14.10;85.20
10644;DHT22;5370;50.132;8.626;2023-05-16T06:03:59;14.00;84.50
10644;DHT22;5370;50.132;8.626;2023-05-16T06:06:25;14.00;84.70
10644;DHT22;5370;50.132;8.626;2023-05-16T06:08:50;13.90;83.90
10644;DHT22;5370;50.132;8.626;2023-05-16T06:11:17;13.80;82.50
10644;DHT22;5370;50.132;8.626;2023-05-16T06:13:42;13.80;82.50
10644;DHT22;5370;50.132;8.626;2023-05-16T06:16:08;13.80;82.80
10644;DHT22;5370;50.132;8.626;2023-05-16T06:18:33;13.80;82.80
10644;DHT22;5370;50.132;8.626;2023-05-16T06:20:59;13.80;83.00
10644;DHT22;5370;50.132;8.626;2023-05-16T06:23:24;13.70;82.10
10644;DHT22;5370;50.132;8.626;2023-05-16T06:25:50;13.60;82.30
10644;DHT22;5370;50.132;8.626;2023-05-16T06:28:15;13.60;82.60
10644;DHT22;5370;50.132;8.626;2023-05-16T06:30:41;13.50;82.50
10644;DHT22;5370;50.132;8.626;2023-05-16T06:33:06;13.50;82.70
10644;DHT22;5370;50.132;8.626;2023-05-16T06:35:32;13.50;83.00
10644;DHT22;5370;50.132;8.626;2023-05-16T06:37:57;13.40;82.70
10644;DHT22;5370;50.132;8.626;2023-05-16T06:40:23;13.30;82.70
10644;DHT22;5370;50.132;8.626;2023-05-16T06:42:49;13.20;82.80
10644;DHT22;5370;50.132;8.626;2023-05-16T06:45:14;13.20;83.10
10644;DHT22;5370;50.132;8.626;2023-05-16T06:47:40;13.10;83.40
10644;DHT22;5370;50.132;8.626;2023-05-16T06:50:06;13.10;84.30
10644;DHT22;5370;50.132;8.626;2023-05-16T06:52:32;13.00;83.70
10644;DHT22;5370;50.132;8.626;2023-05-16T06:54:57;13.00;84.10
10644;DHT22;5370;50.132;8.626;2023-05-16T06:57:23;13.00;84.40
10644;DHT22;5370;50.132;8.626;2023-05-16T06:59:48;13.00;84.50
10644;DHT22;5370;50.132;8.626;2023-05-16T07:02:14;13.00;84.70
10644;DHT22;5370;50.132;8.626;2023-05-16T07:04:42;13.00;84.70
10644;DHT22;5370;50.132;8.626;2023-05-16T07:07:08;13.00;84.60
10644;DHT22;5370;50.132;8.626;2023-05-16T07:09:34;13.00;84.70
10644;DHT22;5370;50.132;8.626;2023-05-16T07:11:59;13.00;84.20
10644;DHT22;5370;50.132;8.626;2023-05-16T07:14:25;12.90;83.90
10644;DHT22;5370;50.132;8.626;2023-05-16T07:16:50;12.90;84.30
10644;DHT22;5370;50.132;8.626;2023-05-16T07:19:16;12.90;84.30
10644;DHT22;5370;50.132;8.626;2023-05-16T07:21:42;12.90;84.40
10644;DHT22;5370;50.132;8.626;2023-05-16T07:24:07;12.90;84.50
10644;DHT22;5370;50.132;8.626;2023-05-16T07:26:33;12.90;84.30
10644;DHT22;5370;50.132;8.626;2023-05-16T07:28:59;12.90;83.60
10644;DHT22;5370;50.132;8.626;2023-05-16T07:31:26;12.90;82.90
10644;DHT22;5370;50.132;8.626;2023-05-16T07:33:52;12.90;82.80
10644;DHT22;5370;50.132;8.626;2023-05-16T07:36:18;12.90;82.60
10644;DHT22;5370;50.132;8.626;2023-05-16T07:38:44;13.00;82.80
10644;DHT22;5370;50.132;8.626;2023-05-16T07:41:09;13.10;82.40
10644;DHT22;5370;50.132;8.626;2023-05-16T07:43:35;13.10;81.90
10644;DHT22;5370;50.132;8.626;2023-05-16T07:46:01;13.00;81.10
10644;DHT22;5370;50.132;8.626;2023-05-16T07:48:27;13.00;80.70
10644;DHT22;5370;50.132;8.626;2023-05-16T07:50:53;12.90;80.50
10644;DHT22;5370;50.132;8.626;2023-05-16T07:53:20;12.90;80.70
10644;DHT22;5370;50.132;8.626;2023-05-16T07:55:46;12.90;80.50
10644;DHT22;5370;50.132;8.626;2023-05-16T07:58:11;12.90;80.70
10644;DHT22;5370;50.132;8.626;2023-05-16T08:00:37;12.90;80.40
10644;DHT22;5370;50.132;8.626;2023-05-16T08:03:03;12.90;80.10
10644;DHT22;5370;50.132;8.626;2023-05-16T08:05:28;12.80;79.60
10644;DHT22;5370;50.132;8.626;2023-05-16T08:07:54;12.80;79.50
10644;DHT22;5370;50.132;8.626;2023-05-16T08:10:21;12.80;79.20
10644;DHT22;5370;50.132;8.626;2023-05-16T08:12:48;12.70;78.90
10644;DHT22;5370;50.132;8.626;2023-05-16T08:15:13;12.60;78.50
10644;DHT22;5370;50.132;8.626;2023-05-16T08:17:39;12.60;78.40
10644;DHT22;5370;50.132;8.626;2023-05-16T08:20:05;12.60;78.50
10644;DHT22;5370;50.132;8.626;2023-05-16T08:22:31;12.50;78.40
10644;DHT22;5370;50.132;8.626;2023-05-16T08:24:57;12.50;78.60
10644;DHT22;5370;50.132;8.626;2023-05-16T08:27:28;12.50;78.80
10644;DHT22;5370;50.132;8.626;2023-05-16T08:29:53;12.50;78.70
10644;DHT22;5370;50.132;8.626;2023-05-16T08:32:19;12.60;79.00
10644;DHT22;5370;50.132;8.626;2023-05-16T08:34:45;12.50;78.90
10644;DHT22;5370;50.132;8.626;2023-05-16T08:37:11;12.50;78.20
10644;DHT22;5370;50.132;8.626;2023-05-16T08:39:39;12.50;78.60
10644;DHT22;5370;50.132;8.626;2023-05-16T08:42:05;12.50;78.80
10644;DHT22;5370;50.132;8.626;2023-05-16T08:44:31;12.50;79.10
10644;DHT22;5370;50.132;8.626;2023-05-16T08:47:03;12.70;78.80
10644;DHT22;5370;50.132;8.626;2023-05-16T08:49:32;12.80;78.80
10644;DHT22;5370;50.132;8.626;2023-05-16T08:51:59;12.90;78.60
10644;DHT22;5370;50.132;8.626;2023-05-16T08:54:26;13.00;77.70
10644;DHT22;5370;50.132;8.626;2023-05-16T08:56:52;13.10;76.90
10644;DHT22;5370;50.132;8.626;2023-05-16T08:59:18;13.10;76.70
10644;DHT22;5370;50.132;8.626;2023-05-16T09:01:45;13.20;76.80
10644;DHT22;5370;50.132;8.626;2023-05-16T09:04:11;13.20;76.50
10644;DHT22;5370;50.132;8.626;2023-05-16T09:06:36;13.30;76.00
10644;DHT22;5370;50.132;8.626;2023-05-16T09:09:02;13.20;75.50
10644;DHT22;5370;50.132;8.626;2023-05-16T09:11:29;13.20;75.30
10644;DHT22;5370;50.132;8.626;2023-05-16T09:13:54;13.30;75.30
10644;DHT22;5370;50.132;8.626;2023-05-16T09:16:20;13.30;75.20
10644;DHT22;5370;50.132;8.626;2023-05-16T09:18:55;13.50;74.90
10644;DHT22;5370;50.132;8.626;2023-05-16T09:21:25;13.60;73.50
10644;DHT22;5370;50.132;8.626;2023-05-16T09:23:51;13.70;73.30
10644;DHT22;5370;50.132;8.626;2023-05-16T09:26:17;13.80;72.40
10644;DHT22;5370;50.132;8.626;2023-05-16T09:28:43;13.90;71.60
10644;DHT22;5370;50.132;8.626;2023-05-16T09:31:19;14.00;71.70
10644;DHT22;5370;50.132;8.626;2023-05-16T09:33:46;14.10;71.00
10644;DHT22;5370;50.132;8.626;2023-05-16T09:36:12;14.00;69.90
10644;DHT22;5370;50.132;8.626;2023-05-16T09:38:39;13.90;70.40
10644;DHT22;5370;50.132;8.626;2023-05-16T09:41:05;13.80;70.50
10644;DHT22;5370;50.132;8.626;2023-05-16T09:43:31;13.80;70.10
10644;DHT22;5370;50.132;8.626;2023-05-16T09:45:58;13.70;70.50
10644;DHT22;5370;50.132;8.626;2023-05-16T09:48:24;13.60;70.80
10644;DHT22;5370;50.132;8.626;2023-05-16T09:50:52;13.60;71.00
10644;DHT22;5370;50.132;8.626;2023-05-16T09:53:29;13.50;70.90
10644;DHT22;5370;50.132;8.626;2023-05-16T09:56:20;13.60;71.10
10644;DHT22;5370;50.132;8.626;2023-05-16T09:58:46;13.50;70.70
10644;DHT22;5370;50.132;8.626;2023-05-16T10:01:12;13.50;70.90
10644;DHT22;5370;50.132;8.626;2023-05-16T10:03:39;13.40;70.50
10644;DHT22;5370;50.132;8.626;2023-05-16T10:06:06;13.40;70.60
10644;DHT22;5370;50.132;8.626;2023-05-16T10:08:33;13.40;71.00
10644;DHT22;5370;50.132;8.626;2023-05-16T10:11:02;13.50;71.10
10644;DHT22;5370;50.132;8.626;2023-05-16T10:13:29;13.50;70.70
10644;DHT22;5370;50.132;8.626;2023-05-16T10:15:57;13.50;69.90
10644;DHT22;5370;50.132;8.626;2023-05-16T10:18:30;13.50;69.00
10644;DHT22;5370;50.132;8.626;2023-05-16T10:21:06;13.50;69.10
10644;DHT22;5370;50.132;8.626;2023-05-16T10:23:32;13.50;68.80
10644;DHT22;5370;50.132;8.626;2023-05-16T10:26:01;13.40;68.10
10644;DHT22;5370;50.132;8.626;2023-05-16T10:28:28;13.50;67.40
10644;DHT22;5370;50.132;8.626;2023-05-16T10:30:54;13.60;67.30
10644;DHT22;5370;50.132;8.626;2023-05-16T10:33:20;13.80;67.70
10644;DHT22;5370;50.132;8.626;2023-05-16T10:35:46;14.00;66.90
10644;DHT22;5370;50.132;8.626;2023-05-16T10:38:14;14.30;67.00
10644;DHT22;5370;50.132;8.626;2023-05-16T10:40:41;14.50;65.50
10644;DHT22;5370;50.132;8.626;2023-05-16T10:43:08;14.70;64.80
10644;DHT22;5370;50.132;8.626;2023-05-16T10:45:38;14.90;62.60
10644;DHT22;5370;50.132;8.626;2023-05-16T10:48:05;15.10;62.20
10644;DHT22;5370;50.132;8.626;2023-05-16T10:53:20;15.50;60.90
10644;DHT22;5370;50.132;8.626;2023-05-16T11:01:23;16.00;57.30
10644;DHT22;5370;50.132;8.626;2023-05-16T11:17:08;16.30;52.90
10644;DHT22;5370;50.132;8.626;2023-05-16T11:19:39;16.10;51.90
10644;DHT22;5370;50.132;8.626;2023-05-16T11:22:09;16.00;51.70
10644;DHT22;5370;50.132;8.626;2023-05-16T11:24:37;16.10;52.20
10644;DHT22;5370;50.132;8.626;2023-05-16T11:27:04;16.20;52.30
10644;DHT22;5370;50.132;8.626;2023-05-16T11:29:34;16.40;51.80
10644;DHT22;5370;50.132;8.626;2023-05-16T11:32:02;16.60;51.30
10644;DHT22;5370;50.132;8.626;2023-05-16T11:34:30;16.70;50.70
10644;DHT22;5370;50.132;8.626;2023-05-16T11:36:56;16.90;51.70
10644;DHT22;5370;50.132;8.626;2023-05-16T11:39:22;17.00;49.60
10644;DHT22;5370;50.132;8.626;2023-05-16T11:41:50;17.10;49.50
10644;DHT22;5370;50.132;8.626;2023-05-16T11:44:16;17.20;49.70
10644;DHT22;5370;50.132;8.626;2023-05-16T11:46:41;17.30;49.20
10644;DHT22;5370;50.132;8.626;2023-05-16T11:49:08;17.40;48.60
10644;DHT22;5370;50.132;8.626;2023-05-16T11:51:38;17.40;47.30
10644;DHT22;5370;50.132;8.626;2023-05-16T11:54:04;17.40;47.60
10644;DHT22;5370;50.132;8.626;2023-05-16T11:56:30;17.40;47.30
10644;DHT22;5370;50.132;8.626;2023-05-16T11:58:58;17.40;47.10
10644;DHT22;5370;50.132;8.626;2023-05-16T12:01:24;17.40;47.40
10644;DHT22;5370;50.132;8.626;2023-05-16T12:03:56;17.40;47.10
10644;DHT22;5370;50.132;8.626;2023-05-16T12:06:22;17.30;46.60
10644;DHT22;5370;50.132;8.626;2023-05-16T12:08:51;17.40;46.80
10644;DHT22;5370;50.132;8.626;2023-05-16T12:11:17;17.50;46.50
10644;DHT22;5370;50.132;8.626;2023-05-16T12:13:43;17.50;45.80
10644;DHT22;5370;50.132;8.626;2023-05-16T12:16:10;17.50;44.10
10644;DHT22;5370;50.132;8.626;2023-05-16T12:18:36;17.20;42.90
10644;DHT22;5370;50.132;8.626;2023-05-16T12:21:03;17.20;42.70
10644;DHT22;5370;50.132;8.626;2023-05-16T12:23:32;17.00;41.70
10644;DHT22;5370;50.132;8.626;2023-05-16T12:25:58;16.90;42.00
10644;DHT22;5370;50.132;8.626;2023-05-16T12:28:30;16.90;42.20
10644;DHT22;5370;50.132;8.626;2023-05-16T12:30:56;17.00;41.70
10644;DHT22;5370;50.132;8.626;2023-05-16T12:33:21;17.10;42.00
10644;DHT22;5370;50.132;8.626;2023-05-16T12:35:47;17.10;42.40
10644;DHT22;5370;50.132;8.626;2023-05-16T12:38:14;17.40;43.20
10644;DHT22;5370;50.132;8.626;2023-05-16T12:40:42;17.60;43.10
10644;DHT22;5370;50.132;8.626;2023-05-16T12:43:21;18.00;43.10
10644;DHT22;5370;50.132;8.626;2023-05-16T12:45:51;18.30;41.80
10644;DHT22;5370;50.132;8.626;2023-05-16T12:48:17;18.30;41.20
10644;DHT22;5370;50.132;8.626;2023-05-16T12:50:43;18.30;41.70
10644;DHT22;5370;50.132;8.626;2023-05-16T12:53:15;18.20;41.00
10644;DHT22;5370;50.132;8.626;2023-05-16T12:55:42;18.00;40.90
10644;DHT22;5370;50.132;8.626;2023-05-16T12:58:08;17.70;38.80
10644;DHT22;5370;50.132;8.626;2023-05-16T13:00:35;17.50;39.00
10644;DHT22;5370;50.132;8.626;2023-05-16T13:03:02;17.50;39.00
10644;DHT22;5370;50.132;8.626;2023-05-16T13:05:28;17.50;39.10
10644;DHT22;5370;50.132;8.626;2023-05-16T13:07:54;17.50;39.40
10644;DHT22;5370;50.132;8.626;2023-05-16T13:10:19;17.30;39.00
10644;DHT22;5370;50.132;8.626;2023-05-16T13:12:45;17.20;39.40
10644;DHT22;5370;50.132;8.626;2023-05-16T13:15:12;17.20;39.80
10644;DHT22;5370;50.132;8.626;2023-05-16T13:17:39;17.20;39.30
10644;DHT22;5370;50.132;8.626;2023-05-16T13:20:06;17.10;38.80
10644;DHT22;5370;50.132;8.626;2023-05-16T13:22:34;16.80;38.60
10644;DHT22;5370;50.132;8.626;2023-05-16T13:25:00;16.70;39.00
10644;DHT22;5370;50.132;8.626;2023-05-16T13:27:26;16.90;39.70
10644;DHT22;5370;50.132;8.626;2023-05-16T13:29:51;17.10;39.40
10644;DHT22;5370;50.132;8.626;2023-05-16T13:32:17;17.30;39.50
10644;DHT22;5370;50.132;8.626;2023-05-16T13:34:43;17.40;40.00
10644;DHT22;5370;50.132;8.626;2023-05-16T13:37:09;17.50;39.00
10644;DHT22;5370;50.132;8.626;2023-05-16T13:39:35;17.50;38.30
10644;DHT22;5370;50.132;8.626;2023-05-16T13:42:00;17.40;38.20
10644;DHT22;5370;50.132;8.626;2023-05-16T13:44:27;17.20;38.30
10644;DHT22;5370;50.132;8.626;2023-05-16T13:46:53;17.20;38.30
10644;DHT22;5370;50.132;8.626;2023-05-16T13:49:19;17.10;37.50
10644;DHT22;5370;50.132;8.626;2023-05-16T13:51:45;17.10;38.00
10644;DHT22;5370;50.132;8.626;2023-05-16T13:54:11;17.30;38.00
10644;DHT22;5370;50.132;8.626;2023-05-16T13:56:37;17.50;37.70
10644;DHT22;5370;50.132;8.626;2023-05-16T13:59:02;17.70;37.70
10644;DHT22;5370;50.132;8.626;2023-05-16T14:01:28;17.80;37.60
10644;DHT22;5370;50.132;8.626;2023-05-16T14:03:53;17.80;37.10
10644;DHT22;5370;50.132;8.626;2023-05-16T14:06:19;17.80;37.20
10644;DHT22;5370;50.132;8.626;2023-05-16T14:08:45;18.00;37.10
10644;DHT22;5370;50.132;8.626;2023-05-16T14:11:10;18.30;37.40
10644;DHT22;5370;50.132;8.626;2023-05-16T14:13:36;18.50;36.10
10644;DHT22;5370;50.132;8.626;2023-05-16T14:16:05;18.20;35.30
10644;DHT22;5370;50.132;8.626;2023-05-16T14:18:30;17.80;35.70
10644;DHT22;5370;50.132;8.626;2023-05-16T14:20:56;17.60;36.10
10644;DHT22;5370;50.132;8.626;2023-05-16T14:23:21;17.50;36.20
10644;DHT22;5370;50.132;8.626;2023-05-16T14:25:47;17.40;36.60
10644;DHT22;5370;50.132;8.626;2023-05-16T14:28:13;17.50;36.70
10644;DHT22;5370;50.132;8.626;2023-05-16T14:30:38;17.70;36.90
10644;DHT22;5370;50.132;8.626;2023-05-16T14:33:04;17.90;36.20
10644;DHT22;5370;50.132;8.626;2023-05-16T14:35:31;18.00;35.50
10644;DHT22;5370;50.132;8.626;2023-05-16T14:37:57;18.10;35.10
10644;DHT22;5370;50.132;8.626;2023-05-16T14:40:22;18.30;35.40
10644;DHT22;5370;50.132;8.626;2023-05-16T14:42:48;18.40;35.60
10644;DHT22;5370;50.132;8.626;2023-05-16T14:45:14;18.60;35.10
10644;DHT22;5370;50.132;8.626;2023-05-16T14:47:39;18.80;35.30
10644;DHT22;5370;50.132;8.626;2023-05-16T14:50:06;18.90;35.00
10644;DHT22;5370;50.132;8.626;2023-05-16T14:52:31;19.10;35.10
10644;DHT22;5370;50.132;8.626;2023-05-16T14:54:57;19.20;34.40
10644;DHT22;5370;50.132;8.626;2023-05-16T14:57:23;19.10;34.60
10644;DHT22;5370;50.132;8.626;2023-05-16T14:59:48;19.20;35.10
10644;DHT22;5370;50.132;8.626;2023-05-16T15:02:14;19.00;33.70
10644;DHT22;5370;50.132;8.626;2023-05-16T15:04:40;18.80;34.10
10644;DHT22;5370;50.132;8.626;2023-05-16T15:07:05;18.70;34.60
10644;DHT22;5370;50.132;8.626;2023-05-16T15:09:31;18.50;34.60
10644;DHT22;5370;50.132;8.626;2023-05-16T15:11:57;18.30;34.50
10644;DHT22;5370;50.132;8.626;2023-05-16T15:14:22;18.10;35.00
10644;DHT22;5370;50.132;8.626;2023-05-16T15:16:48;17.80;35.30
10644;DHT22;5370;50.132;8.626;2023-05-16T15:19:14;17.60;35.80
10644;DHT22;5370;50.132;8.626;2023-05-16T15:21:39;17.50;35.90
10644;DHT22;5370;50.132;8.626;2023-05-16T15:24:06;17.50;35.50
10644;DHT22;5370;50.132;8.626;2023-05-16T15:26:32;17.40;35.50
10644;DHT22;5370;50.132;8.626;2023-05-16T15:28:58;17.50;36.20
10644;DHT22;5370;50.132;8.626;2023-05-16T15:31:23;17.70;35.50
10644;DHT22;5370;50.132;8.626;2023-05-16T15:33:49;17.90;35.30
10644;DHT22;5370;50.132;8.626;2023-05-16T15:36:14;18.00;35.10
10644;DHT22;5370;50.132;8.626;2023-05-16T15:38:40;18.20;34.90
10644;DHT22;5370;50.132;8.626;2023-05-16T15:41:09;18.30;34.80
10644;DHT22;5370;50.132;8.626;2023-05-16T15:43:35;18.40;34.30
10644;DHT22;5370;50.132;8.626;2023-05-16T15:46:01;18.40;33.70
10644;DHT22;5370;50.132;8.626;2023-05-16T15:48:26;18.20;32.60
10644;DHT22;5370;50.132;8.626;2023-05-16T15:50:52;17.90;32.40
10644;DHT22;5370;50.132;8.626;2023-05-16T15:53:17;17.70;32.70
10644;DHT22;5370;50.132;8.626;2023-05-16T15:55:43;17.50;33.10
10644;DHT22;5370;50.132;8.626;2023-05-16T15:58:08;17.20;33.50
10644;DHT22;5370;50.132;8.626;2023-05-16T16:00:34;17.00;34.20
10644;DHT22;5370;50.132;8.626;2023-05-16T16:02:59;16.80;34.60
10644;DHT22;5370;50.132;8.626;2023-05-16T16:05:25;16.70;34.80
10644;DHT22;5370;50.132;8.626;2023-05-16T16:07:51;16.60;35.10
10644;DHT22;5370;50.132;8.626;2023-05-16T16:10:17;16.50;34.80
10644;DHT22;5370;50.132;8.626;2023-05-16T16:12:42;16.50;35.00